地図

経路データ

SID SEASON NUMBER BASIN SUBBASIN NAME ISO_TIME NATURE LAT LON WMO_WIND WMO_PRES WMO_AGENCY TRACK_TYPE DIST2LAND LANDFALL IFLAG USA_AGENCY USA_ATCF_ID USA_LAT USA_LON USA_RECORD USA_STATUS USA_WIND USA_PRES USA_SSHS USA_R34_NE USA_R34_SE USA_R34_SW USA_R34_NW USA_R50_NE USA_R50_SE USA_R50_SW USA_R50_NW USA_R64_NE USA_R64_SE USA_R64_SW USA_R64_NW USA_POCI USA_ROCI USA_RMW USA_EYE TOKYO_LAT TOKYO_LON TOKYO_GRADE TOKYO_WIND TOKYO_PRES TOKYO_R50_DIR TOKYO_R50_LONG TOKYO_R50_SHORT TOKYO_R30_DIR TOKYO_R30_LONG TOKYO_R30_SHORT TOKYO_LAND CMA_LAT CMA_LON CMA_CAT CMA_WIND CMA_PRES HKO_LAT HKO_LON HKO_CAT HKO_WIND HKO_PRES NEWDELHI_LAT NEWDELHI_LON NEWDELHI_GRADE NEWDELHI_WIND NEWDELHI_PRES NEWDELHI_CI NEWDELHI_DP NEWDELHI_POCI REUNION_LAT REUNION_LON REUNION_TYPE REUNION_WIND REUNION_PRES REUNION_TNUM REUNION_CI REUNION_RMW REUNION_R34_NE REUNION_R34_SE REUNION_R34_SW REUNION_R34_NW REUNION_R50_NE REUNION_R50_SE REUNION_R50_SW REUNION_R50_NW REUNION_R64_NE REUNION_R64_SE REUNION_R64_SW REUNION_R64_NW BOM_LAT BOM_LON BOM_TYPE BOM_WIND BOM_PRES BOM_TNUM BOM_CI BOM_RMW BOM_R34_NE BOM_R34_SE BOM_R34_SW BOM_R34_NW BOM_R50_NE BOM_R50_SE BOM_R50_SW BOM_R50_NW BOM_R64_NE BOM_R64_SE BOM_R64_SW BOM_R64_NW BOM_ROCI BOM_POCI BOM_EYE BOM_POS_METHOD BOM_PRES_METHOD NADI_LAT NADI_LON NADI_CAT NADI_WIND NADI_PRES WELLINGTON_LAT WELLINGTON_LON WELLINGTON_WIND WELLINGTON_PRES DS824_LAT DS824_LON DS824_STAGE DS824_WIND DS824_PRES TD9636_LAT TD9636_LON TD9636_STAGE TD9636_WIND TD9636_PRES TD9635_LAT TD9635_LON TD9635_WIND TD9635_PRES TD9635_ROCI NEUMANN_LAT NEUMANN_LON NEUMANN_CLASS NEUMANN_WIND NEUMANN_PRES MLC_LAT MLC_LON MLC_CLASS MLC_WIND MLC_PRES USA_GUST BOM_GUST BOM_GUST_PER REUNION_GUST REUNION_GUST_PER USA_SEAHGT USA_SEARAD_NE USA_SEARAD_SE USA_SEARAD_SW USA_SEARAD_NW STORM_SPEED STORM_DIR
2020073S14052 2020 12 SI MM HEROLD 2020-03-13 06:00:00 NR -14.3000 52.4000 PROVISIONAL 227 208 O_____________ tcvitals SI222020 -14.3000 52.4000 35 1004 0 45 25 25 50 1008 175 25 6 204
2020073S14052 2020 12 SI MM HEROLD 2020-03-13 09:00:00 NR -14.5501 52.2826 PROVISIONAL 204 191 P_____________ SI222020 -14.5501 52.2826 35 1002 0 52 25 25 57 1008 175 25 4 206
2020073S14052 2020 12 SI MM HEROLD 2020-03-13 12:00:00 NR -14.7000 52.2000 PROVISIONAL 191 191 O_____________ tcvitals SI222020 -14.7000 52.2000 35 1000 0 60 25 25 65 1008 175 25 2 219
2020073S14052 2020 12 SI MM HEROLD 2020-03-13 15:00:00 NR -14.6998 52.1523 PROVISIONAL 191 170 P_____________ SI222020 -14.6998 52.1523 40 999 0 65 40 70 1009 175 25 2 270
2020073S14052 2020 12 SI MM HEROLD 2020-03-13 18:00:00 NR -14.7000 52.0000 PROVISIONAL 170 122 O_____________ tcvitals SI222020 -14.7000 52.0000 45 999 0 70 55 75 1010 175 25 6 251
2020073S14052 2020 12 SI MM HEROLD 2020-03-13 21:00:00 NR -14.9004 51.5504 PROVISIONAL 122 65 P_____________ SI222020 -14.9004 51.5504 49 995 0 72 57 75 1008 170 25 10 245
2020073S14052 2020 12 SI MM HEROLD 2020-03-14 00:00:00 NR -15.1000 51.1000 PROVISIONAL 65 44 O_____________ tcvitals SI222020 -15.1000 51.1000 54 992 0 75 60 60 75 1007 165 25 6 248
2020073S14052 2020 12 SI MM HEROLD 2020-03-14 03:00:00 NR -15.1448 50.9324 PROVISIONAL 44 44 P_____________ SI222020 -15.1448 50.9324 57 992 0 77 65 65 75 1008 170 25 2 270
2020073S14052 2020 12 SI MM HEROLD 2020-03-14 06:00:00 NR -15.1000 50.9000 PROVISIONAL 44 44 O_____________ tcvitals SI222020 -15.1000 50.9000 60 992 0 80 70 70 75 1010 175 25 2 339
2020073S14052 2020 12 SI MM HEROLD 2020-03-14 09:00:00 NR -14.9925 50.8700 PROVISIONAL 48 48 P_____________ SI222020 -14.9925 50.8700 60 990 0 75 65 65 72 1008 180 25 2 8
2020073S14052 2020 12 SI MM HEROLD 2020-03-14 12:00:00 NR -14.9000 50.9000 PROVISIONAL 54 54 O_____________ tcvitals SI222020 -14.9000 50.9000 60 988 0 70 60 60 70 1007 185 25 1 59
2020073S14052 2020 12 SI MM HEROLD 2020-03-14 15:00:00 NR -14.9275 50.9775 PROVISIONAL 63 58 P_____________ SI222020 -14.9275 50.9775 62 986 0 70 62 65 72 1007 170 22 2 117
2020073S14052 2020 12 SI MM HEROLD 2020-03-14 18:00:00 NR -15.0000 51.1000 PROVISIONAL 68 68 O_____________ tcvitals SI222020 -15.0000 51.1000 64 984 1 70 65 70 75 1008 155 20 3 119
2020073S14052 2020 12 SI MM HEROLD 2020-03-14 21:00:00 NR -15.0650 51.2350 PROVISIONAL 75 75 P_____________ SI222020 -15.0650 51.2350 67 982 1 72 65 70 67 1007 152 17 3 109
2020073S14052 2020 12 SI MM HEROLD 2020-03-15 00:00:00 NR -15.1000 51.4000 PROVISIONAL 97 97 O_____________ tcvitals SI222020 -15.1000 51.4000 70 980 1 75 65 70 60 1006 150 14 4 86
2020073S14052 2020 12 SI MM HEROLD 2020-03-15 03:00:00 NR -15.0425 51.6001 PROVISIONAL 120 120 P_____________ SI222020 -15.0425 51.6001 70 981 1 75 65 70 67 1007 160 14 4 75
2020073S14052 2020 12 SI MM HEROLD 2020-03-15 06:00:00 NR -15.0000 51.8000 PROVISIONAL 141 141 O_____________ tcvitals SI222020 -15.0000 51.8000 70 983 1 75 65 70 75 1008 170 14 3 97
2020073S14052 2020 12 SI MM HEROLD 2020-03-15 09:00:00 NR -15.0849 51.9350 PROVISIONAL 150 150 P_____________ SI222020 -15.0849 51.9350 70 981 1 77 65 72 75 1006 172 17 4 124
2020073S14052 2020 12 SI MM HEROLD 2020-03-15 12:00:00 NR -15.2000 52.1000 PROVISIONAL 171 171 O_____________ tcvitals SI222020 -15.2000 52.1000 70 979 1 80 65 75 75 1005 175 20 5 111
2020073S14052 2020 12 SI MM HEROLD 2020-03-15 15:00:00 NR -15.2500 52.3776 PROVISIONAL 203 203 P_____________ SI222020 -15.2500 52.3776 75 977 1 77 62 70 72 1006 175 17 6 100
2020073S14052 2020 12 SI MM HEROLD 2020-03-15 18:00:00 NR -15.3000 52.7000 PROVISIONAL 236 236 O_____________ tcvitals SI222020 -15.3000 52.7000 80 976 1 75 60 65 70 1007 175 14 6 104
2020073S14052 2020 12 SI MM HEROLD 2020-03-15 21:00:00 NR -15.3924 52.9775 PROVISIONAL 268 268 P_____________ SI222020 -15.3924 52.9775 77 976 1 77 62 70 75 1006 182 14 6 109
2020073S14052 2020 12 SI MM HEROLD 2020-03-16 00:00:00 NR -15.5000 53.3000 PROVISIONAL 300 300 O_____________ tcvitals SI222020 -15.5000 53.3000 74 977 1 80 65 75 80 1005 190 14 7 106
2020073S14052 2020 12 SI MM HEROLD 2020-03-16 03:00:00 NR -15.5925 53.7201 PROVISIONAL 343 343 P_____________ SI222020 -15.5925 53.7201 77 976 1 95 55 75 90 1006 192 12 9 103
2020073S14052 2020 12 SI MM HEROLD 2020-03-16 06:00:00 NR -15.7000 54.2000 PROVISIONAL 397 397 O_____________ tcvitals SI222020 -15.7000 54.2000 80 976 1 110 45 75 100 1007 195 10 9 103
2020073S14052 2020 12 SI MM HEROLD 2020-03-16 09:00:00 NR -15.8046 54.6481 PROVISIONAL 441 441 P_____________ SI222020 -15.8046 54.6481 80 975 1 112 65 77 100 1006 200 12 10 107
2020073S14052 2020 12 SI MM HEROLD 2020-03-16 12:00:00 NR -16.0000 55.2000 PROVISIONAL 507 457 O_____________ tcvitals SI222020 -16.0000 55.2000 80 974 1 115 85 80 100 1005 205 14 14 113
2020073S14052 2020 12 SI MM HEROLD 2020-03-16 15:00:00 NR -16.3402 55.9551 PROVISIONAL 453 376 P_____________ SI222020 -16.3402 55.9551 82 972 1 115 85 77 102 1005 212 9 17 118
2020073S14052 2020 12 SI MM HEROLD 2020-03-16 18:00:00 NR -16.8000 56.8000 PROVISIONAL 376 313 O_____________ tcvitals SI222020 -16.8000 56.8000 84 971 2 115 85 75 105 1005 220 5 18 122
2020073S14052 2020 12 SI MM HEROLD 2020-03-16 21:00:00 NR -17.3193 57.5706 PROVISIONAL 313 254 P_____________ SI222020 -17.3193 57.5706 82 972 1 127 92 80 110 1005 220 5 19 126
2020073S14052 2020 12 SI MM HEROLD 2020-03-17 00:00:00 NR -17.9000 58.4000 PROVISIONAL 256 237 O_____________ tcvitals SI222020 -17.9000 58.4000 80 974 1 140 100 85 115 1005 220 5 21 125
2020073S14052 2020 12 SI MM HEROLD 2020-03-17 03:00:00 NR -18.5302 59.3919 PROVISIONAL 252 244 P_____________ SI222020 -18.5302 59.3919 89 968 2 133 95 97 110 1006 210 8 22 122
2020073S14052 2020 12 SI MM HEROLD 2020-03-17 06:00:00 NR -19.1000 60.4000 PROVISIONAL 303 303 O_____________ tcvitals SI222020 -19.1000 60.4000 99 963 3 126 90 110 105 1007 200 12 20 117
2020073S14052 2020 12 SI MM HEROLD 2020-03-17 09:00:00 NR -19.4495 61.2965 PROVISIONAL 379 376 P_____________ SI222020 -19.4495 61.2965 94 966 2 126 90 110 105 1007 200 13 18 114
2020073S14052 2020 12 SI MM HEROLD 2020-03-17 12:00:00 NR -19.8000 62.1000 PROVISIONAL 452 452 O_____________ tcvitals SI222020 -19.8000 62.1000 89 970 2 126 90 110 105 1007 200 14 17 124
2020073S14052 2020 12 SI MM HEROLD 2020-03-17 15:00:00 NR -20.3993 62.8148 PROVISIONAL 521 521 P_____________ SI222020 -20.3993 62.8148 79 976 1 128 120 100 92 1007 200 14 18 132
2020073S14052 2020 12 SI MM HEROLD 2020-03-17 18:00:00 NR -21.0000 63.5000 PROVISIONAL 598 598 O_____________ tcvitals SI222020 -21.0000 63.5000 70 983 1 130 150 90 80 1007 200 14 17 125
2020073S14052 2020 12 SI MM HEROLD 2020-03-17 21:00:00 NR -21.3651 64.2734 PROVISIONAL 686 686 P_____________ SI222020 -21.3651 64.2734 67 984 1 120 117 80 87 1007 205 19 16 117
2020073S14052 2020 12 SI MM HEROLD 2020-03-18 00:00:00 NR -21.7000 65.0000 PROVISIONAL 763 763 O_____________ tcvitals SI222020 -21.7000 65.0000 64 986 1 110 85 70 95 1007 210 25 15 125
2020073S14052 2020 12 SI MM HEROLD 2020-03-18 03:00:00 NR -22.1918 65.5653 PROVISIONAL 835 835 P_____________ SI222020 -22.1918 65.5653 59 989 0 107 72 80 95 1007 202 27 14 134
2020073S14052 2020 12 SI MM HEROLD 2020-03-18 06:00:00 NR -22.7000 66.1000 PROVISIONAL 899 899 O_____________ tcvitals SI222020 -22.7000 66.1000 54 992 0 105 60 90 95 1007 195 30 14 131
2020073S14052 2020 12 SI MM HEROLD 2020-03-18 09:00:00 NR -23.1147 66.7206 PROVISIONAL 970 970 P_____________ SI222020 -23.1147 66.7206 54 991 0 105 60 90 95 1007 195 30 14 124
2020073S14052 2020 12 SI MM HEROLD 2020-03-18 12:00:00 NR -23.5000 67.4000 PROVISIONAL 1052 1052 O_____________ tcvitals SI222020 -23.5000 67.4000 54 991 0 105 60 90 95 1007 195 30 16 121
2020073S14052 2020 12 SI MM HEROLD 2020-03-18 15:00:00 NR -23.9078 68.1724 PROVISIONAL 1143 1143 P_____________ SI222020 -23.9078 68.1724 49 994 0 100 60 75 95 1007 187 30 16 120
2020073S14052 2020 12 SI MM HEROLD 2020-03-18 18:00:00 NR -24.3000 68.9000 PROVISIONAL 1225 1225 O_____________ tcvitals SI222020 -24.3000 68.9000 45 997 0 95 60 60 95 1007 180 30 14 124
2020073S14052 2020 12 SI MM HEROLD 2020-03-18 21:00:00 NR -24.6792 69.4230 PROVISIONAL 1288 1288 P_____________ SI222020 -24.6792 69.4230 42 998 0 87 57 50 87 1006 185 30 11 128
2020073S14052 2020 12 SI MM HEROLD 2020-03-19 00:00:00 NR -25.0000 69.9000 PROVISIONAL 1347 1347 O_____________ tcvitals SI222020 -25.0000 69.9000 39 999 0 80 55 40 80 1006 190 30 11 118
2020073S14052 2020 12 SI MM HEROLD 2020-03-19 03:00:00 NR -25.2077 70.5080 PROVISIONAL 1411 1411 P_____________ SI222020 -25.2077 70.5080 37 1001 0 82 57 1007 190 37 12 110
2020073S14052 2020 12 SI MM HEROLD 2020-03-19 06:00:00 NR -25.4000 71.1000 PROVISIONAL 1475 1475 O_____________ tcvitals SI222020 -25.4000 71.1000 35 1003 0 85 60 1008 190 45 11 117
2020073S14052 2020 12 SI MM HEROLD 2020-03-19 09:00:00 NR -25.6846 71.5652 PROVISIONAL 1534 1534 P_____________ SI222020 -25.6846 71.5652 35 1002 0 82 67 1008 190 45 10 126
2020073S14052 2020 12 SI MM HEROLD 2020-03-19 12:00:00 NR -26.0000 72.0000 PROVISIONAL 1583 1583 O_____________ tcvitals SI222020 -26.0000 72.0000 35 1002 0 80 75 1008 190 45 10 127
2020073S14052 2020 12 SI MM HEROLD 2020-03-19 15:00:00 NR -26.3055 72.4819 PROVISIONAL 1641 1641 P_____________ SI222020 -26.3055 72.4819 32 1001 -1 1007 180 50 11 124
2020073S14052 2020 12 SI MM HEROLD 2020-03-19 18:00:00 NR -26.6000 73.0000 PROVISIONAL 1699 O_____________ tcvitals SI222020 -26.6000 73.0000 29 1001 -1 1007 170 55 11 122

IBTrACS Databaseについて

本データベースは、米国NOAAが公開する1842年以降の世界の熱帯低気圧のベストトラックデータアーカイブInternational Best Track Archive for Climate Stewardship (IBTrACS)を、ウェブで閲覧しやすい形式に変換したものです。

最終更新日:2021-12-03